sensor_id;sensor_type;location;lat;lon;timestamp;P1;durP1;ratioP1;P2;durP2;ratioP2
63688;SDS011;54895;40.928;14.480;2023-02-26T00:00:06;54.80;;;27.98;;
63688;SDS011;54895;40.928;14.480;2023-02-26T00:02:40;55.88;;;28.20;;
63688;SDS011;54895;40.928;14.480;2023-02-26T00:05:08;52.63;;;29.02;;
63688;SDS011;54895;40.928;14.480;2023-02-26T00:07:35;49.88;;;29.58;;
63688;SDS011;54895;40.928;14.480;2023-02-26T00:10:03;51.30;;;28.67;;
63688;SDS011;54895;40.928;14.480;2023-02-26T00:12:32;54.72;;;30.25;;
63688;SDS011;54895;40.928;14.480;2023-02-26T00:14:59;52.30;;;30.73;;
63688;SDS011;54895;40.928;14.480;2023-02-26T00:17:42;52.60;;;29.67;;
63688;SDS011;54895;40.928;14.480;2023-02-26T00:20:17;53.35;;;29.90;;
63688;SDS011;54895;40.928;14.480;2023-02-26T00:22:44;48.83;;;30.00;;
63688;SDS011;54895;40.928;14.480;2023-02-26T00:25:11;53.97;;;29.90;;
63688;SDS011;54895;40.928;14.480;2023-02-26T00:27:38;54.55;;;30.35;;
63688;SDS011;54895;40.928;14.480;2023-02-26T00:30:06;52.42;;;30.45;;
63688;SDS011;54895;40.928;14.480;2023-02-26T00:32:35;47.13;;;28.45;;
63688;SDS011;54895;40.928;14.480;2023-02-26T00:35:05;53.20;;;29.95;;
63688;SDS011;54895;40.928;14.480;2023-02-26T00:40:22;49.05;;;29.35;;
63688;SDS011;54895;40.928;14.480;2023-02-26T00:42:53;53.63;;;31.23;;
63688;SDS011;54895;40.928;14.480;2023-02-26T00:45:21;53.15;;;27.92;;
63688;SDS011;54895;40.928;14.480;2023-02-26T00:47:49;50.03;;;27.17;;
63688;SDS011;54895;40.928;14.480;2023-02-26T00:50:29;52.30;;;28.15;;
63688;SDS011;54895;40.928;14.480;2023-02-26T00:55:56;47.53;;;27.65;;
63688;SDS011;54895;40.928;14.480;2023-02-26T00:58:23;53.63;;;30.40;;
63688;SDS011;54895;40.928;14.480;2023-02-26T01:00:50;48.65;;;27.67;;
63688;SDS011;54895;40.928;14.480;2023-02-26T01:03:17;50.72;;;29.50;;
63688;SDS011;54895;40.928;14.480;2023-02-26T01:05:44;48.47;;;30.23;;
63688;SDS011;54895;40.928;14.480;2023-02-26T01:08:24;46.60;;;28.80;;
63688;SDS011;54895;40.928;14.480;2023-02-26T01:11:14;57.40;;;28.90;;
63688;SDS011;54895;40.928;14.480;2023-02-26T01:13:41;42.00;;;24.08;;
63688;SDS011;54895;40.928;14.480;2023-02-26T01:16:08;51.92;;;28.08;;
63688;SDS011;54895;40.928;14.480;2023-02-26T01:18:49;51.85;;;27.05;;
63688;SDS011;54895;40.928;14.480;2023-02-26T01:21:24;47.78;;;24.90;;
63688;SDS011;54895;40.928;14.480;2023-02-26T01:23:56;44.17;;;26.45;;
63688;SDS011;54895;40.928;14.480;2023-02-26T01:26:26;43.40;;;27.33;;
63688;SDS011;54895;40.928;14.480;2023-02-26T01:28:54;49.40;;;27.35;;
63688;SDS011;54895;40.928;14.480;2023-02-26T01:37:10;49.47;;;29.92;;
63688;SDS011;54895;40.928;14.480;2023-02-26T01:42:45;51.65;;;28.90;;
63688;SDS011;54895;40.928;14.480;2023-02-26T01:45:16;43.97;;;29.10;;
63688;SDS011;54895;40.928;14.480;2023-02-26T01:48:06;51.65;;;29.40;;
63688;SDS011;54895;40.928;14.480;2023-02-26T01:50:47;50.28;;;30.65;;
63688;SDS011;54895;40.928;14.480;2023-02-26T01:53:18;54.50;;;30.05;;
63688;SDS011;54895;40.928;14.480;2023-02-26T01:55:57;47.10;;;27.92;;
63688;SDS011;54895;40.928;14.480;2023-02-26T01:58:29;48.40;;;29.33;;
63688;SDS011;54895;40.928;14.480;2023-02-26T02:00:59;48.88;;;29.02;;
63688;SDS011;54895;40.928;14.480;2023-02-26T02:03:27;49.30;;;29.20;;
63688;SDS011;54895;40.928;14.480;2023-02-26T02:06:14;53.40;;;29.27;;
63688;SDS011;54895;40.928;14.480;2023-02-26T02:08:44;46.03;;;28.23;;
63688;SDS011;54895;40.928;14.480;2023-02-26T02:11:12;48.42;;;29.10;;
63688;SDS011;54895;40.928;14.480;2023-02-26T02:13:44;51.58;;;28.30;;
63688;SDS011;54895;40.928;14.480;2023-02-26T02:16:36;47.03;;;28.35;;
63688;SDS011;54895;40.928;14.480;2023-02-26T02:27:34;53.53;;;29.98;;
63688;SDS011;54895;40.928;14.480;2023-02-26T02:30:34;46.40;;;28.83;;
63688;SDS011;54895;40.928;14.480;2023-02-26T02:33:19;45.97;;;29.35;;
63688;SDS011;54895;40.928;14.480;2023-02-26T02:36:11;51.60;;;30.77;;
63688;SDS011;54895;40.928;14.480;2023-02-26T02:38:48;49.88;;;29.25;;
63688;SDS011;54895;40.928;14.480;2023-02-26T02:41:24;52.85;;;30.20;;
63688;SDS011;54895;40.928;14.480;2023-02-26T02:43:56;48.85;;;29.75;;
63688;SDS011;54895;40.928;14.480;2023-02-26T02:46:29;47.92;;;29.05;;
63688;SDS011;54895;40.928;14.480;2023-02-26T02:51:28;48.53;;;29.15;;
63688;SDS011;54895;40.928;14.480;2023-02-26T02:54:07;44.95;;;26.38;;
63688;SDS011;54895;40.928;14.480;2023-02-26T02:56:41;49.20;;;27.35;;
63688;SDS011;54895;40.928;14.480;2023-02-26T02:59:19;48.03;;;28.20;;
63688;SDS011;54895;40.928;14.480;2023-02-26T03:01:50;49.15;;;26.23;;
63688;SDS011;54895;40.928;14.480;2023-02-26T03:04:26;43.50;;;26.42;;
63688;SDS011;54895;40.928;14.480;2023-02-26T03:06:53;48.70;;;26.60;;
63688;SDS011;54895;40.928;14.480;2023-02-26T03:09:20;42.53;;;26.27;;
63688;SDS011;54895;40.928;14.480;2023-02-26T03:11:47;52.20;;;25.52;;
63688;SDS011;54895;40.928;14.480;2023-02-26T03:14:14;49.15;;;26.58;;
63688;SDS011;54895;40.928;14.480;2023-02-26T03:16:45;45.00;;;24.95;;
63688;SDS011;54895;40.928;14.480;2023-02-26T03:22:41;46.45;;;25.15;;
63688;SDS011;54895;40.928;14.480;2023-02-26T03:25:25;44.90;;;27.00;;
63688;SDS011;54895;40.928;14.480;2023-02-26T03:28:10;47.58;;;27.23;;
63688;SDS011;54895;40.928;14.480;2023-02-26T03:31:01;46.38;;;27.33;;
63688;SDS011;54895;40.928;14.480;2023-02-26T03:36:30;42.28;;;26.55;;
63688;SDS011;54895;40.928;14.480;2023-02-26T03:39:19;41.35;;;26.23;;
63688;SDS011;54895;40.928;14.480;2023-02-26T03:41:56;45.63;;;28.02;;
63688;SDS011;54895;40.928;14.480;2023-02-26T03:44:56;45.33;;;27.00;;
63688;SDS011;54895;40.928;14.480;2023-02-26T03:51:22;45.08;;;26.50;;
63688;SDS011;54895;40.928;14.480;2023-02-26T03:54:34;41.53;;;24.23;;
63688;SDS011;54895;40.928;14.480;2023-02-26T03:57:25;50.85;;;23.98;;
63688;SDS011;54895;40.928;14.480;2023-02-26T04:00:08;43.80;;;26.13;;
63688;SDS011;54895;40.928;14.480;2023-02-26T04:02:50;40.20;;;23.20;;
63688;SDS011;54895;40.928;14.480;2023-02-26T04:05:26;40.75;;;24.55;;
63688;SDS011;54895;40.928;14.480;2023-02-26T04:07:56;46.13;;;25.55;;
63688;SDS011;54895;40.928;14.480;2023-02-26T04:10:28;45.15;;;25.15;;
63688;SDS011;54895;40.928;14.480;2023-02-26T04:13:02;40.95;;;23.65;;
63688;SDS011;54895;40.928;14.480;2023-02-26T04:15:29;41.92;;;23.30;;
63688;SDS011;54895;40.928;14.480;2023-02-26T04:17:55;39.92;;;23.63;;
63688;SDS011;54895;40.928;14.480;2023-02-26T04:20:22;41.45;;;22.92;;
63688;SDS011;54895;40.928;14.480;2023-02-26T04:22:49;39.42;;;22.50;;
63688;SDS011;54895;40.928;14.480;2023-02-26T04:25:20;45.13;;;25.48;;
63688;SDS011;54895;40.928;14.480;2023-02-26T04:27:48;39.30;;;21.48;;
63688;SDS011;54895;40.928;14.480;2023-02-26T04:30:14;40.47;;;22.73;;
63688;SDS011;54895;40.928;14.480;2023-02-26T04:32:41;41.45;;;21.27;;
63688;SDS011;54895;40.928;14.480;2023-02-26T04:35:10;36.60;;;18.75;;
63688;SDS011;54895;40.928;14.480;2023-02-26T04:37:37;34.15;;;20.00;;
63688;SDS011;54895;40.928;14.480;2023-02-26T04:40:04;32.33;;;16.92;;
63688;SDS011;54895;40.928;14.480;2023-02-26T04:42:32;31.90;;;18.17;;
63688;SDS011;54895;40.928;14.480;2023-02-26T04:44:59;31.27;;;17.13;;
63688;SDS011;54895;40.928;14.480;2023-02-26T04:47:27;29.17;;;14.82;;
63688;SDS011;54895;40.928;14.480;2023-02-26T04:49:53;30.27;;;19.13;;
63688;SDS011;54895;40.928;14.480;2023-02-26T04:52:20;34.25;;;17.70;;
63688;SDS011;54895;40.928;14.480;2023-02-26T04:54:48;27.35;;;14.05;;
63688;SDS011;54895;40.928;14.480;2023-02-26T04:57:15;30.95;;;15.77;;
63688;SDS011;54895;40.928;14.480;2023-02-26T04:59:42;31.33;;;15.70;;
63688;SDS011;54895;40.928;14.480;2023-02-26T05:02:09;33.58;;;14.32;;
63688;SDS011;54895;40.928;14.480;2023-02-26T05:04:39;26.15;;;13.93;;
63688;SDS011;54895;40.928;14.480;2023-02-26T05:07:06;54.70;;;30.25;;
63688;SDS011;54895;40.928;14.480;2023-02-26T05:09:33;32.22;;;15.63;;
63688;SDS011;54895;40.928;14.480;2023-02-26T05:11:59;32.53;;;15.70;;
63688;SDS011;54895;40.928;14.480;2023-02-26T05:14:27;27.90;;;14.00;;
63688;SDS011;54895;40.928;14.480;2023-02-26T05:16:54;34.20;;;16.23;;
63688;SDS011;54895;40.928;14.480;2023-02-26T05:19:20;35.67;;;18.08;;
63688;SDS011;54895;40.928;14.480;2023-02-26T05:21:49;33.72;;;17.70;;
63688;SDS011;54895;40.928;14.480;2023-02-26T05:24:15;38.85;;;18.00;;
63688;SDS011;54895;40.928;14.480;2023-02-26T05:26:42;33.88;;;17.30;;
63688;SDS011;54895;40.928;14.480;2023-02-26T05:29:09;34.28;;;17.05;;
63688;SDS011;54895;40.928;14.480;2023-02-26T05:31:35;35.20;;;16.60;;
63688;SDS011;54895;40.928;14.480;2023-02-26T05:34:03;35.75;;;16.75;;
63688;SDS011;54895;40.928;14.480;2023-02-26T05:36:30;33.13;;;17.38;;
63688;SDS011;54895;40.928;14.480;2023-02-26T05:38:56;36.25;;;17.58;;
63688;SDS011;54895;40.928;14.480;2023-02-26T05:41:23;34.90;;;16.77;;
63688;SDS011;54895;40.928;14.480;2023-02-26T05:43:50;38.25;;;16.98;;
63688;SDS011;54895;40.928;14.480;2023-02-26T05:46:17;36.88;;;17.95;;
63688;SDS011;54895;40.928;14.480;2023-02-26T05:48:44;41.65;;;17.35;;
63688;SDS011;54895;40.928;14.480;2023-02-26T05:51:10;35.30;;;16.25;;
63688;SDS011;54895;40.928;14.480;2023-02-26T05:53:37;32.92;;;15.93;;
63688;SDS011;54895;40.928;14.480;2023-02-26T05:56:04;32.97;;;17.38;;
63688;SDS011;54895;40.928;14.480;2023-02-26T05:58:30;35.25;;;17.50;;
63688;SDS011;54895;40.928;14.480;2023-02-26T06:00:59;39.70;;;17.45;;
63688;SDS011;54895;40.928;14.480;2023-02-26T06:03:26;31.63;;;16.88;;
63688;SDS011;54895;40.928;14.480;2023-02-26T06:05:52;32.95;;;16.55;;
63688;SDS011;54895;40.928;14.480;2023-02-26T06:08:19;40.00;;;17.45;;
63688;SDS011;54895;40.928;14.480;2023-02-26T06:10:46;34.72;;;17.80;;
63688;SDS011;54895;40.928;14.480;2023-02-26T06:13:12;39.72;;;17.38;;
63688;SDS011;54895;40.928;14.480;2023-02-26T06:15:39;41.33;;;15.10;;
63688;SDS011;54895;40.928;14.480;2023-02-26T06:18:05;38.88;;;15.07;;
63688;SDS011;54895;40.928;14.480;2023-02-26T06:20:33;31.45;;;16.95;;
63688;SDS011;54895;40.928;14.480;2023-02-26T06:23:00;36.05;;;17.58;;
63688;SDS011;54895;40.928;14.480;2023-02-26T06:25:27;29.88;;;12.63;;
63688;SDS011;54895;40.928;14.480;2023-02-26T06:27:54;36.53;;;18.65;;
63688;SDS011;54895;40.928;14.480;2023-02-26T06:30:20;43.17;;;18.33;;
63688;SDS011;54895;40.928;14.480;2023-02-26T06:32:49;44.13;;;19.38;;
63688;SDS011;54895;40.928;14.480;2023-02-26T06:35:16;44.58;;;20.35;;
63688;SDS011;54895;40.928;14.480;2023-02-26T06:37:43;38.25;;;17.35;;
63688;SDS011;54895;40.928;14.480;2023-02-26T06:40:10;36.08;;;17.38;;
63688;SDS011;54895;40.928;14.480;2023-02-26T06:42:37;36.67;;;16.75;;
63688;SDS011;54895;40.928;14.480;2023-02-26T06:45:04;37.55;;;16.30;;
63688;SDS011;54895;40.928;14.480;2023-02-26T06:47:31;34.03;;;15.10;;
63688;SDS011;54895;40.928;14.480;2023-02-26T06:49:58;33.97;;;14.82;;
63688;SDS011;54895;40.928;14.480;2023-02-26T06:52:24;35.53;;;16.10;;
63688;SDS011;54895;40.928;14.480;2023-02-26T06:54:52;34.88;;;14.90;;
63688;SDS011;54895;40.928;14.480;2023-02-26T06:57:18;36.40;;;16.75;;
63688;SDS011;54895;40.928;14.480;2023-02-26T06:59:45;35.15;;;16.13;;
63688;SDS011;54895;40.928;14.480;2023-02-26T07:02:20;31.58;;;16.05;;
63688;SDS011;54895;40.928;14.480;2023-02-26T07:04:48;36.92;;;15.70;;
63688;SDS011;54895;40.928;14.480;2023-02-26T07:07:14;35.40;;;15.63;;
63688;SDS011;54895;40.928;14.480;2023-02-26T07:09:41;27.80;;;15.52;;
63688;SDS011;54895;40.928;14.480;2023-02-26T07:12:08;34.83;;;15.70;;
63688;SDS011;54895;40.928;14.480;2023-02-26T07:14:35;30.23;;;15.57;;
63688;SDS011;54895;40.928;14.480;2023-02-26T07:17:02;37.22;;;14.90;;
63688;SDS011;54895;40.928;14.480;2023-02-26T07:19:29;30.15;;;15.30;;
63688;SDS011;54895;40.928;14.480;2023-02-26T07:21:58;35.78;;;15.70;;
63688;SDS011;54895;40.928;14.480;2023-02-26T07:24:25;40.30;;;16.95;;
63688;SDS011;54895;40.928;14.480;2023-02-26T07:26:52;41.03;;;17.40;;
63688;SDS011;54895;40.928;14.480;2023-02-26T07:29:19;35.97;;;18.60;;
63688;SDS011;54895;40.928;14.480;2023-02-26T07:31:45;40.15;;;17.75;;
63688;SDS011;54895;40.928;14.480;2023-02-26T07:34:12;36.75;;;17.60;;
63688;SDS011;54895;40.928;14.480;2023-02-26T07:36:39;36.70;;;17.20;;
63688;SDS011;54895;40.928;14.480;2023-02-26T07:39:05;34.38;;;17.27;;
63688;SDS011;54895;40.928;14.480;2023-02-26T07:41:32;33.53;;;17.83;;
63688;SDS011;54895;40.928;14.480;2023-02-26T07:43:59;35.58;;;18.30;;
63688;SDS011;54895;40.928;14.480;2023-02-26T07:46:26;36.55;;;18.60;;
63688;SDS011;54895;40.928;14.480;2023-02-26T07:48:53;37.55;;;19.20;;
63688;SDS011;54895;40.928;14.480;2023-02-26T07:51:20;38.03;;;16.60;;
63688;SDS011;54895;40.928;14.480;2023-02-26T07:53:47;37.95;;;17.92;;
63688;SDS011;54895;40.928;14.480;2023-02-26T07:56:13;32.67;;;16.05;;
63688;SDS011;54895;40.928;14.480;2023-02-26T07:58:40;36.00;;;15.10;;
63688;SDS011;54895;40.928;14.480;2023-02-26T08:01:07;41.72;;;15.63;;
63688;SDS011;54895;40.928;14.480;2023-02-26T08:03:33;39.55;;;15.15;;
63688;SDS011;54895;40.928;14.480;2023-02-26T08:06:00;37.47;;;16.25;;
63688;SDS011;54895;40.928;14.480;2023-02-26T08:08:28;40.83;;;15.85;;
63688;SDS011;54895;40.928;14.480;2023-02-26T08:10:54;43.28;;;17.02;;
63688;SDS011;54895;40.928;14.480;2023-02-26T08:13:21;39.85;;;17.42;;
63688;SDS011;54895;40.928;14.480;2023-02-26T08:15:49;47.35;;;17.67;;
63688;SDS011;54895;40.928;14.480;2023-02-26T08:18:15;44.95;;;17.80;;
63688;SDS011;54895;40.928;14.480;2023-02-26T08:20:42;51.30;;;19.48;;
63688;SDS011;54895;40.928;14.480;2023-02-26T08:23:08;54.85;;;18.08;;
63688;SDS011;54895;40.928;14.480;2023-02-26T08:25:35;50.92;;;16.77;;
63688;SDS011;54895;40.928;14.480;2023-02-26T08:28:01;41.47;;;16.48;;
63688;SDS011;54895;40.928;14.480;2023-02-26T08:30:30;50.25;;;16.83;;
63688;SDS011;54895;40.928;14.480;2023-02-26T08:32:56;47.25;;;17.08;;
63688;SDS011;54895;40.928;14.480;2023-02-26T08:35:23;43.13;;;14.43;;
63688;SDS011;54895;40.928;14.480;2023-02-26T08:37:50;45.50;;;16.38;;
63688;SDS011;54895;40.928;14.480;2023-02-26T08:40:17;53.50;;;19.75;;
63688;SDS011;54895;40.928;14.480;2023-02-26T08:42:44;53.00;;;15.48;;
63688;SDS011;54895;40.928;14.480;2023-02-26T08:45:10;42.55;;;15.32;;
63688;SDS011;54895;40.928;14.480;2023-02-26T08:51:28;44.63;;;14.30;;
63688;SDS011;54895;40.928;14.480;2023-02-26T08:53:54;56.30;;;14.48;;
63688;SDS011;54895;40.928;14.480;2023-02-26T08:56:21;50.08;;;13.80;;
63688;SDS011;54895;40.928;14.480;2023-02-26T08:58:47;49.63;;;14.02;;
63688;SDS011;54895;40.928;14.480;2023-02-26T09:01:14;50.45;;;13.20;;
63688;SDS011;54895;40.928;14.480;2023-02-26T09:03:40;58.15;;;12.85;;
63688;SDS011;54895;40.928;14.480;2023-02-26T09:06:06;50.60;;;12.02;;
63688;SDS011;54895;40.928;14.480;2023-02-26T09:08:35;57.65;;;11.35;;
63688;SDS011;54895;40.928;14.480;2023-02-26T09:11:01;50.17;;;9.98;;
63688;SDS011;54895;40.928;14.480;2023-02-26T09:13:28;48.03;;;10.07;;
63688;SDS011;54895;40.928;14.480;2023-02-26T09:15:55;43.03;;;9.63;;
63688;SDS011;54895;40.928;14.480;2023-02-26T09:18:22;47.25;;;9.63;;
63688;SDS011;54895;40.928;14.480;2023-02-26T09:20:49;52.70;;;9.40;;
63688;SDS011;54895;40.928;14.480;2023-02-26T09:23:15;44.97;;;9.02;;
63688;SDS011;54895;40.928;14.480;2023-02-26T09:25:41;49.45;;;9.50;;
63688;SDS011;54895;40.928;14.480;2023-02-26T09:28:07;52.35;;;10.48;;
63688;SDS011;54895;40.928;14.480;2023-02-26T09:30:34;44.58;;;10.05;;
63688;SDS011;54895;40.928;14.480;2023-02-26T09:33:00;48.17;;;10.23;;
63688;SDS011;54895;40.928;14.480;2023-02-26T09:35:27;41.03;;;10.60;;
63688;SDS011;54895;40.928;14.480;2023-02-26T09:37:53;31.50;;;8.95;;
63688;SDS011;54895;40.928;14.480;2023-02-26T09:40:22;38.20;;;9.10;;
63688;SDS011;54895;40.928;14.480;2023-02-26T09:45:41;30.25;;;7.47;;
63688;SDS011;54895;40.928;14.480;2023-02-26T09:51:48;31.23;;;7.22;;
63688;SDS011;54895;40.928;14.480;2023-02-26T09:54:22;24.50;;;6.07;;
63688;SDS011;54895;40.928;14.480;2023-02-26T09:56:51;21.08;;;6.45;;
63688;SDS011;54895;40.928;14.480;2023-02-26T09:59:20;16.83;;;5.97;;
63688;SDS011;54895;40.928;14.480;2023-02-26T10:12:49;13.23;;;4.80;;
63688;SDS011;54895;40.928;14.480;2023-02-26T10:15:19;15.15;;;5.70;;
63688;SDS011;54895;40.928;14.480;2023-02-26T10:20:27;14.27;;;4.57;;
63688;SDS011;54895;40.928;14.480;2023-02-26T10:23:01;7.65;;;3.50;;
63688;SDS011;54895;40.928;14.480;2023-02-26T10:25:37;10.88;;;4.07;;
63688;SDS011;54895;40.928;14.480;2023-02-26T10:30:41;7.43;;;2.90;;
63688;SDS011;54895;40.928;14.480;2023-02-26T10:38:38;10.60;;;3.00;;
63688;SDS011;54895;40.928;14.480;2023-02-26T10:41:14;9.90;;;3.53;;
63688;SDS011;54895;40.928;14.480;2023-02-26T10:43:47;9.50;;;2.35;;
63688;SDS011;54895;40.928;14.480;2023-02-26T10:51:42;11.57;;;1.90;;
63688;SDS011;54895;40.928;14.480;2023-02-26T10:54:30;4.82;;;1.48;;
63688;SDS011;54895;40.928;14.480;2023-02-26T10:57:08;6.82;;;2.03;;
63688;SDS011;54895;40.928;14.480;2023-02-26T10:59:44;7.40;;;1.60;;
63688;SDS011;54895;40.928;14.480;2023-02-26T11:02:31;7.10;;;1.17;;
63688;SDS011;54895;40.928;14.480;2023-02-26T11:05:02;13.82;;;2.13;;
63688;SDS011;54895;40.928;14.480;2023-02-26T11:07:31;4.00;;;1.40;;
63688;SDS011;54895;40.928;14.480;2023-02-26T11:10:02;10.95;;;2.08;;
63688;SDS011;54895;40.928;14.480;2023-02-26T11:12:29;10.13;;;1.92;;
63688;SDS011;54895;40.928;14.480;2023-02-26T11:14:59;7.70;;;1.73;;
63688;SDS011;54895;40.928;14.480;2023-02-26T11:17:26;11.13;;;2.70;;
63688;SDS011;54895;40.928;14.480;2023-02-26T11:20:01;10.95;;;2.10;;
63688;SDS011;54895;40.928;14.480;2023-02-26T11:25:01;10.30;;;2.53;;
63688;SDS011;54895;40.928;14.480;2023-02-26T11:27:30;7.70;;;2.42;;
63688;SDS011;54895;40.928;14.480;2023-02-26T11:30:14;11.40;;;2.55;;
63688;SDS011;54895;40.928;14.480;2023-02-26T11:32:45;12.65;;;2.20;;
63688;SDS011;54895;40.928;14.480;2023-02-26T11:35:16;6.60;;;2.15;;
63688;SDS011;54895;40.928;14.480;2023-02-26T11:37:48;12.32;;;2.97;;
63688;SDS011;54895;40.928;14.480;2023-02-26T11:43:02;12.60;;;2.35;;
63688;SDS011;54895;40.928;14.480;2023-02-26T11:45:35;10.60;;;1.63;;
63688;SDS011;54895;40.928;14.480;2023-02-26T11:48:09;15.68;;;2.90;;
63688;SDS011;54895;40.928;14.480;2023-02-26T11:50:41;12.77;;;2.67;;
63688;SDS011;54895;40.928;14.480;2023-02-26T11:53:19;10.43;;;2.65;;
63688;SDS011;54895;40.928;14.480;2023-02-26T11:55:58;10.00;;;2.70;;
63688;SDS011;54895;40.928;14.480;2023-02-26T11:58:38;12.02;;;2.90;;
63688;SDS011;54895;40.928;14.480;2023-02-26T12:01:07;15.75;;;3.22;;
63688;SDS011;54895;40.928;14.480;2023-02-26T12:03:36;19.48;;;3.85;;
63688;SDS011;54895;40.928;14.480;2023-02-26T12:06:17;14.18;;;3.10;;
63688;SDS011;54895;40.928;14.480;2023-02-26T12:08:50;10.85;;;2.38;;
63688;SDS011;54895;40.928;14.480;2023-02-26T12:14:02;17.35;;;2.83;;
63688;SDS011;54895;40.928;14.480;2023-02-26T12:16:34;6.70;;;1.48;;
63688;SDS011;54895;40.928;14.480;2023-02-26T12:32:43;15.00;;;3.10;;
63688;SDS011;54895;40.928;14.480;2023-02-26T12:35:23;16.60;;;3.28;;
63688;SDS011;54895;40.928;14.480;2023-02-26T12:49:33;13.15;;;3.25;;
63688;SDS011;54895;40.928;14.480;2023-02-26T12:52:55;11.93;;;2.13;;
63688;SDS011;54895;40.928;14.480;2023-02-26T12:56:03;12.13;;;2.67;;
63688;SDS011;54895;40.928;14.480;2023-02-26T13:21:19;9.02;;;2.08;;
63688;SDS011;54895;40.928;14.480;2023-02-26T13:24:54;7.47;;;2.03;;
63688;SDS011;54895;40.928;14.480;2023-02-26T13:31:46;10.38;;;2.40;;
63688;SDS011;54895;40.928;14.480;2023-02-26T13:35:45;9.75;;;2.35;;
63688;SDS011;54895;40.928;14.480;2023-02-26T13:39:24;8.38;;;1.65;;
63688;SDS011;54895;40.928;14.480;2023-02-26T13:42:16;9.18;;;2.17;;
63688;SDS011;54895;40.928;14.480;2023-02-26T13:52:26;12.15;;;2.33;;
63688;SDS011;54895;40.928;14.480;2023-02-26T13:54:54;5.80;;;1.58;;
63688;SDS011;54895;40.928;14.480;2023-02-26T14:02:52;8.88;;;2.55;;
63688;SDS011;54895;40.928;14.480;2023-02-26T14:05:31;13.27;;;2.00;;
63688;SDS011;54895;40.928;14.480;2023-02-26T14:10:49;11.02;;;2.40;;
63688;SDS011;54895;40.928;14.480;2023-02-26T14:13:32;5.57;;;2.00;;
63688;SDS011;54895;40.928;14.480;2023-02-26T14:23:51;17.48;;;1.98;;
63688;SDS011;54895;40.928;14.480;2023-02-26T14:26:26;11.30;;;2.22;;
63688;SDS011;54895;40.928;14.480;2023-02-26T14:29:05;13.10;;;2.42;;
63688;SDS011;54895;40.928;14.480;2023-02-26T14:32:28;10.43;;;1.92;;
63688;SDS011;54895;40.928;14.480;2023-02-26T14:34:32;10.60;;;1.95;;
63688;SDS011;54895;40.928;14.480;2023-02-26T14:37:02;10.77;;;2.42;;
63688;SDS011;54895;40.928;14.480;2023-02-26T14:39:40;5.53;;;2.20;;
63688;SDS011;54895;40.928;14.480;2023-02-26T14:42:40;11.32;;;2.00;;
63688;SDS011;54895;40.928;14.480;2023-02-26T14:48:05;5.53;;;1.83;;
63688;SDS011;54895;40.928;14.480;2023-02-26T15:02:36;6.60;;;1.60;;
63688;SDS011;54895;40.928;14.480;2023-02-26T15:15:47;8.13;;;1.33;;
63688;SDS011;54895;40.928;14.480;2023-02-26T15:23:51;5.10;;;1.55;;
63688;SDS011;54895;40.928;14.480;2023-02-26T15:28:48;9.00;;;2.28;;
63688;SDS011;54895;40.928;14.480;2023-02-26T15:31:17;9.93;;;2.78;;
63688;SDS011;54895;40.928;14.480;2023-02-26T15:33:48;9.68;;;1.92;;
63688;SDS011;54895;40.928;14.480;2023-02-26T15:36:17;7.47;;;2.00;;
63688;SDS011;54895;40.928;14.480;2023-02-26T15:38:48;5.07;;;1.92;;
63688;SDS011;54895;40.928;14.480;2023-02-26T15:41:18;8.82;;;2.33;;
63688;SDS011;54895;40.928;14.480;2023-02-26T15:43:47;10.85;;;2.67;;
63688;SDS011;54895;40.928;14.480;2023-02-26T15:46:18;11.07;;;1.92;;
63688;SDS011;54895;40.928;14.480;2023-02-26T15:48:51;6.35;;;1.30;;
63688;SDS011;54895;40.928;14.480;2023-02-26T15:51:24;5.53;;;1.53;;
63688;SDS011;54895;40.928;14.480;2023-02-26T15:53:51;6.10;;;2.33;;
63688;SDS011;54895;40.928;14.480;2023-02-26T15:56:21;6.85;;;1.88;;
63688;SDS011;54895;40.928;14.480;2023-02-26T15:58:54;7.22;;;1.65;;
63688;SDS011;54895;40.928;14.480;2023-02-26T16:01:25;6.75;;;2.00;;
63688;SDS011;54895;40.928;14.480;2023-02-26T16:03:57;9.00;;;2.38;;
63688;SDS011;54895;40.928;14.480;2023-02-26T16:06:30;9.43;;;2.00;;
63688;SDS011;54895;40.928;14.480;2023-02-26T16:09:00;10.52;;;1.85;;
63688;SDS011;54895;40.928;14.480;2023-02-26T16:11:28;5.25;;;1.83;;
63688;SDS011;54895;40.928;14.480;2023-02-26T16:14:00;7.88;;;2.00;;
63688;SDS011;54895;40.928;14.480;2023-02-26T16:16:27;7.35;;;1.75;;
63688;SDS011;54895;40.928;14.480;2023-02-26T16:19:01;12.38;;;2.30;;
63688;SDS011;54895;40.928;14.480;2023-02-26T16:23:56;7.55;;;2.08;;
63688;SDS011;54895;40.928;14.480;2023-02-26T16:26:25;9.35;;;1.70;;
63688;SDS011;54895;40.928;14.480;2023-02-26T16:28:59;6.07;;;1.98;;
63688;SDS011;54895;40.928;14.480;2023-02-26T16:31:29;17.17;;;2.92;;
63688;SDS011;54895;40.928;14.480;2023-02-26T16:34:02;10.10;;;1.90;;
63688;SDS011;54895;40.928;14.480;2023-02-26T16:36:37;10.43;;;2.03;;
63688;SDS011;54895;40.928;14.480;2023-02-26T16:41:33;9.23;;;2.13;;
63688;SDS011;54895;40.928;14.480;2023-02-26T16:44:02;13.50;;;2.28;;
63688;SDS011;54895;40.928;14.480;2023-02-26T16:46:43;11.05;;;2.00;;
63688;SDS011;54895;40.928;14.480;2023-02-26T16:52:05;9.40;;;2.63;;
63688;SDS011;54895;40.928;14.480;2023-02-26T16:54:37;9.25;;;2.55;;
63688;SDS011;54895;40.928;14.480;2023-02-26T16:57:17;6.22;;;2.15;;
63688;SDS011;54895;40.928;14.480;2023-02-26T16:59:51;11.02;;;2.13;;
63688;SDS011;54895;40.928;14.480;2023-02-26T17:02:25;6.68;;;2.03;;
63688;SDS011;54895;40.928;14.480;2023-02-26T17:07:26;6.90;;;1.65;;
63688;SDS011;54895;40.928;14.480;2023-02-26T17:09:59;8.07;;;3.20;;
63688;SDS011;54895;40.928;14.480;2023-02-26T17:12:43;9.15;;;2.08;;
63688;SDS011;54895;40.928;14.480;2023-02-26T17:15:26;21.50;;;7.63;;
63688;SDS011;54895;40.928;14.480;2023-02-26T17:17:59;11.30;;;3.75;;
63688;SDS011;54895;40.928;14.480;2023-02-26T17:20:29;9.88;;;2.58;;
63688;SDS011;54895;40.928;14.480;2023-02-26T17:23:06;13.63;;;3.30;;
63688;SDS011;54895;40.928;14.480;2023-02-26T17:25:41;12.68;;;3.25;;
63688;SDS011;54895;40.928;14.480;2023-02-26T17:28:19;12.10;;;3.17;;
63688;SDS011;54895;40.928;14.480;2023-02-26T17:30:49;8.90;;;3.10;;
63688;SDS011;54895;40.928;14.480;2023-02-26T17:33:16;10.95;;;2.95;;
63688;SDS011;54895;40.928;14.480;2023-02-26T17:35:42;7.85;;;2.40;;
63688;SDS011;54895;40.928;14.480;2023-02-26T17:38:10;14.45;;;3.22;;
63688;SDS011;54895;40.928;14.480;2023-02-26T17:40:42;10.82;;;3.95;;
63688;SDS011;54895;40.928;14.480;2023-02-26T17:43:10;11.88;;;3.88;;
63688;SDS011;54895;40.928;14.480;2023-02-26T17:45:41;15.50;;;3.03;;
63688;SDS011;54895;40.928;14.480;2023-02-26T17:48:09;9.95;;;3.28;;
63688;SDS011;54895;40.928;14.480;2023-02-26T17:53:17;15.63;;;3.50;;
63688;SDS011;54895;40.928;14.480;2023-02-26T17:55:45;12.75;;;3.15;;
63688;SDS011;54895;40.928;14.480;2023-02-26T17:58:14;11.77;;;2.70;;
63688;SDS011;54895;40.928;14.480;2023-02-26T18:00:43;9.63;;;2.92;;
63688;SDS011;54895;40.928;14.480;2023-02-26T18:03:14;11.27;;;3.40;;
63688;SDS011;54895;40.928;14.480;2023-02-26T18:05:41;8.93;;;2.95;;